sensor_id;sensor_type;location;lat;lon;timestamp;temperature;humidity
10129;DHT22;5104;50.720;7.044;2023-05-21T00:00:49;13.00;1.00
10129;DHT22;5104;50.720;7.044;2023-05-21T00:03:19;13.00;1.00
10129;DHT22;5104;50.720;7.044;2023-05-21T00:05:46;13.00;1.00
10129;DHT22;5104;50.720;7.044;2023-05-21T00:08:14;13.00;20.10
10129;DHT22;5104;50.720;7.044;2023-05-21T00:10:41;13.00;99.90
10129;DHT22;5104;50.720;7.044;2023-05-21T00:13:08;12.90;1.00
10129;DHT22;5104;50.720;7.044;2023-05-21T00:15:36;12.90;1.00
10129;DHT22;5104;50.720;7.044;2023-05-21T00:18:03;12.90;99.90
10129;DHT22;5104;50.720;7.044;2023-05-21T00:20:31;12.90;99.90
10129;DHT22;5104;50.720;7.044;2023-05-21T00:22:58;12.90;1.00
10129;DHT22;5104;50.720;7.044;2023-05-21T00:25:27;12.90;1.00
10129;DHT22;5104;50.720;7.044;2023-05-21T00:27:54;12.90;1.00
10129;DHT22;5104;50.720;7.044;2023-05-21T00:30:21;12.90;1.00
10129;DHT22;5104;50.720;7.044;2023-05-21T00:32:48;13.00;1.00
10129;DHT22;5104;50.720;7.044;2023-05-21T00:35:15;13.00;1.00
10129;DHT22;5104;50.720;7.044;2023-05-21T00:37:44;13.00;91.80
10129;DHT22;5104;50.720;7.044;2023-05-21T00:40:12;13.00;15.00
10129;DHT22;5104;50.720;7.044;2023-05-21T00:42:39;12.90;16.80
10129;DHT22;5104;50.720;7.044;2023-05-21T00:45:07;13.00;1.00
10129;DHT22;5104;50.720;7.044;2023-05-21T00:47:34;13.00;99.90
10129;DHT22;5104;50.720;7.044;2023-05-21T00:50:02;13.00;99.90
10129;DHT22;5104;50.720;7.044;2023-05-21T00:52:29;13.00;1.00
10129;DHT22;5104;50.720;7.044;2023-05-21T00:54:58;13.00;99.90
10129;DHT22;5104;50.720;7.044;2023-05-21T00:57:25;13.00;1.00
10129;DHT22;5104;50.720;7.044;2023-05-21T00:59:53;13.00;1.00
10129;DHT22;5104;50.720;7.044;2023-05-21T01:02:20;13.00;99.90
10129;DHT22;5104;50.720;7.044;2023-05-21T01:04:49;13.00;99.90
10129;DHT22;5104;50.720;7.044;2023-05-21T01:07:16;13.00;99.90
10129;DHT22;5104;50.720;7.044;2023-05-21T01:09:44;13.00;99.90
10129;DHT22;5104;50.720;7.044;2023-05-21T01:12:13;12.90;1.00
10129;DHT22;5104;50.720;7.044;2023-05-21T01:14:40;12.90;1.00
10129;DHT22;5104;50.720;7.044;2023-05-21T01:17:08;12.90;99.90
10129;DHT22;5104;50.720;7.044;2023-05-21T01:19:35;12.90;99.90
10129;DHT22;5104;50.720;7.044;2023-05-21T01:22:04;12.80;99.90
10129;DHT22;5104;50.720;7.044;2023-05-21T01:24:33;12.80;27.60
10129;DHT22;5104;50.720;7.044;2023-05-21T01:27:01;12.80;65.30
10129;DHT22;5104;50.720;7.044;2023-05-21T01:29:31;12.80;1.00
10129;DHT22;5104;50.720;7.044;2023-05-21T01:32:03;12.80;1.00
10129;DHT22;5104;50.720;7.044;2023-05-21T01:34:36;12.80;1.00
10129;DHT22;5104;50.720;7.044;2023-05-21T01:37:13;12.80;1.00
10129;DHT22;5104;50.720;7.044;2023-05-21T01:39:45;12.70;99.90
10129;DHT22;5104;50.720;7.044;2023-05-21T01:42:14;12.80;1.00
10129;DHT22;5104;50.720;7.044;2023-05-21T01:44:42;12.80;24.10
10129;DHT22;5104;50.720;7.044;2023-05-21T01:47:11;12.70;1.00
10129;DHT22;5104;50.720;7.044;2023-05-21T01:49:39;12.70;35.80
10129;DHT22;5104;50.720;7.044;2023-05-21T01:52:06;12.70;1.00
10129;DHT22;5104;50.720;7.044;2023-05-21T01:54:33;12.80;1.00
10129;DHT22;5104;50.720;7.044;2023-05-21T01:57:02;12.80;99.90
10129;DHT22;5104;50.720;7.044;2023-05-21T01:59:29;12.80;48.20
10129;DHT22;5104;50.720;7.044;2023-05-21T02:01:56;12.80;99.90
10129;DHT22;5104;50.720;7.044;2023-05-21T02:04:23;12.80;99.90
10129;DHT22;5104;50.720;7.044;2023-05-21T02:06:50;12.80;99.90
10129;DHT22;5104;50.720;7.044;2023-05-21T02:09:19;12.80;99.90
10129;DHT22;5104;50.720;7.044;2023-05-21T02:11:46;12.70;1.00
10129;DHT22;5104;50.720;7.044;2023-05-21T02:14:14;12.80;1.00
10129;DHT22;5104;50.720;7.044;2023-05-21T02:16:41;12.80;1.00
10129;DHT22;5104;50.720;7.044;2023-05-21T02:19:08;12.80;99.90
10129;DHT22;5104;50.720;7.044;2023-05-21T02:21:35;12.80;1.00
10129;DHT22;5104;50.720;7.044;2023-05-21T02:24:03;12.80;1.00
10129;DHT22;5104;50.720;7.044;2023-05-21T02:26:30;12.80;99.90
10129;DHT22;5104;50.720;7.044;2023-05-21T02:28:57;12.70;1.00
10129;DHT22;5104;50.720;7.044;2023-05-21T02:31:25;12.70;1.00
10129;DHT22;5104;50.720;7.044;2023-05-21T02:33:52;12.70;99.90
10129;DHT22;5104;50.720;7.044;2023-05-21T02:36:19;12.80;1.00
10129;DHT22;5104;50.720;7.044;2023-05-21T02:38:46;12.80;99.90
10129;DHT22;5104;50.720;7.044;2023-05-21T02:41:13;12.80;1.00
10129;DHT22;5104;50.720;7.044;2023-05-21T02:43:40;12.70;99.90
10129;DHT22;5104;50.720;7.044;2023-05-21T02:46:07;12.80;1.00
10129;DHT22;5104;50.720;7.044;2023-05-21T02:48:35;12.70;1.00
10129;DHT22;5104;50.720;7.044;2023-05-21T02:51:02;12.80;1.00
10129;DHT22;5104;50.720;7.044;2023-05-21T02:53:29;12.80;1.00
10129;DHT22;5104;50.720;7.044;2023-05-21T02:55:56;12.80;1.00
10129;DHT22;5104;50.720;7.044;2023-05-21T02:58:23;12.80;1.00
10129;DHT22;5104;50.720;7.044;2023-05-21T03:00:50;12.70;1.00
10129;DHT22;5104;50.720;7.044;2023-05-21T03:03:18;12.70;24.80
10129;DHT22;5104;50.720;7.044;2023-05-21T03:05:46;12.70;1.00
10129;DHT22;5104;50.720;7.044;2023-05-21T03:08:13;12.70;1.00
10129;DHT22;5104;50.720;7.044;2023-05-21T03:10:41;12.70;1.00
10129;DHT22;5104;50.720;7.044;2023-05-21T03:13:08;12.70;1.00
10129;DHT22;5104;50.720;7.044;2023-05-21T03:15:35;12.70;99.90
10129;DHT22;5104;50.720;7.044;2023-05-21T03:18:03;12.70;1.00
10129;DHT22;5104;50.720;7.044;2023-05-21T03:20:30;12.70;1.00
10129;DHT22;5104;50.720;7.044;2023-05-21T03:22:59;12.70;1.00
10129;DHT22;5104;50.720;7.044;2023-05-21T03:25:29;12.80;99.90
10129;DHT22;5104;50.720;7.044;2023-05-21T03:27:55;12.80;1.00
10129;DHT22;5104;50.720;7.044;2023-05-21T03:30:22;12.80;99.90
10129;DHT22;5104;50.720;7.044;2023-05-21T03:32:49;12.80;40.90
10129;DHT22;5104;50.720;7.044;2023-05-21T03:35:16;12.80;1.00
10129;DHT22;5104;50.720;7.044;2023-05-21T03:37:43;12.80;99.90
10129;DHT22;5104;50.720;7.044;2023-05-21T03:40:12;12.80;1.00
10129;DHT22;5104;50.720;7.044;2023-05-21T03:42:40;12.70;1.00
10129;DHT22;5104;50.720;7.044;2023-05-21T03:45:08;12.80;63.90
10129;DHT22;5104;50.720;7.044;2023-05-21T03:47:35;12.70;1.00
10129;DHT22;5104;50.720;7.044;2023-05-21T03:50:02;12.70;9.20
10129;DHT22;5104;50.720;7.044;2023-05-21T03:52:30;12.70;1.00
10129;DHT22;5104;50.720;7.044;2023-05-21T03:54:57;12.70;1.00
10129;DHT22;5104;50.720;7.044;2023-05-21T03:57:25;12.70;1.00
10129;DHT22;5104;50.720;7.044;2023-05-21T03:59:52;12.70;1.00
10129;DHT22;5104;50.720;7.044;2023-05-21T04:02:20;12.70;1.00
10129;DHT22;5104;50.720;7.044;2023-05-21T04:04:47;12.80;1.00
10129;DHT22;5104;50.720;7.044;2023-05-21T04:07:15;12.70;1.00
10129;DHT22;5104;50.720;7.044;2023-05-21T04:09:43;12.70;1.00
10129;DHT22;5104;50.720;7.044;2023-05-21T04:12:10;12.70;1.00
10129;DHT22;5104;50.720;7.044;2023-05-21T04:14:39;12.80;1.00
10129;DHT22;5104;50.720;7.044;2023-05-21T04:17:05;12.80;99.90
10129;DHT22;5104;50.720;7.044;2023-05-21T04:19:33;12.80;1.00
10129;DHT22;5104;50.720;7.044;2023-05-21T04:22:00;12.80;99.90
10129;DHT22;5104;50.720;7.044;2023-05-21T04:24:27;12.80;75.60
10129;DHT22;5104;50.720;7.044;2023-05-21T04:26:54;12.90;99.90
10129;DHT22;5104;50.720;7.044;2023-05-21T04:29:22;12.90;63.40
10129;DHT22;5104;50.720;7.044;2023-05-21T04:31:51;12.90;1.00
10129;DHT22;5104;50.720;7.044;2023-05-21T04:34:18;12.90;99.90
10129;DHT22;5104;50.720;7.044;2023-05-21T04:36:46;12.90;99.90
10129;DHT22;5104;50.720;7.044;2023-05-21T04:39:13;12.90;99.90
10129;DHT22;5104;50.720;7.044;2023-05-21T04:41:41;12.90;99.90
10129;DHT22;5104;50.720;7.044;2023-05-21T04:44:09;12.90;1.00
10129;DHT22;5104;50.720;7.044;2023-05-21T04:46:39;13.00;99.90
10129;DHT22;5104;50.720;7.044;2023-05-21T04:49:08;13.00;1.00
10129;DHT22;5104;50.720;7.044;2023-05-21T04:51:36;13.00;99.90
10129;DHT22;5104;50.720;7.044;2023-05-21T04:54:03;13.00;99.90
10129;DHT22;5104;50.720;7.044;2023-05-21T04:56:30;13.10;99.90
10129;DHT22;5104;50.720;7.044;2023-05-21T04:58:57;13.20;1.00
10129;DHT22;5104;50.720;7.044;2023-05-21T05:01:24;13.20;99.90
10129;DHT22;5104;50.720;7.044;2023-05-21T05:03:54;13.20;1.00
10129;DHT22;5104;50.720;7.044;2023-05-21T05:06:22;13.30;99.90
10129;DHT22;5104;50.720;7.044;2023-05-21T05:08:50;13.30;1.00
10129;DHT22;5104;50.720;7.044;2023-05-21T05:11:17;13.30;8.70
10129;DHT22;5104;50.720;7.044;2023-05-21T05:13:44;13.40;99.90
10129;DHT22;5104;50.720;7.044;2023-05-21T05:16:11;13.50;1.00
10129;DHT22;5104;50.720;7.044;2023-05-21T05:18:39;13.50;1.00
10129;DHT22;5104;50.720;7.044;2023-05-21T05:21:06;13.50;1.00
10129;DHT22;5104;50.720;7.044;2023-05-21T05:23:34;13.60;1.00
10129;DHT22;5104;50.720;7.044;2023-05-21T05:26:01;13.70;1.00
10129;DHT22;5104;50.720;7.044;2023-05-21T05:28:28;13.70;99.90
10129;DHT22;5104;50.720;7.044;2023-05-21T05:30:55;13.70;1.00
10129;DHT22;5104;50.720;7.044;2023-05-21T05:33:22;13.80;99.90
10129;DHT22;5104;50.720;7.044;2023-05-21T05:35:49;13.80;99.90
10129;DHT22;5104;50.720;7.044;2023-05-21T05:38:16;13.90;99.90
10129;DHT22;5104;50.720;7.044;2023-05-21T05:40:44;14.00;1.00
10129;DHT22;5104;50.720;7.044;2023-05-21T05:43:11;14.10;1.00
10129;DHT22;5104;50.720;7.044;2023-05-21T05:45:38;14.20;1.00
10129;DHT22;5104;50.720;7.044;2023-05-21T05:48:05;14.40;1.00
10129;DHT22;5104;50.720;7.044;2023-05-21T05:50:32;14.50;1.00
10129;DHT22;5104;50.720;7.044;2023-05-21T05:52:59;14.60;99.90
10129;DHT22;5104;50.720;7.044;2023-05-21T05:55:26;14.60;1.00
10129;DHT22;5104;50.720;7.044;2023-05-21T05:57:54;14.70;1.00
10129;DHT22;5104;50.720;7.044;2023-05-21T06:00:21;14.80;99.90
10129;DHT22;5104;50.720;7.044;2023-05-21T06:02:48;14.90;72.20
10129;DHT22;5104;50.720;7.044;2023-05-21T06:05:15;15.10;1.00
10129;DHT22;5104;50.720;7.044;2023-05-21T06:07:42;15.10;1.00
10129;DHT22;5104;50.720;7.044;2023-05-21T06:10:09;15.20;1.00
10129;DHT22;5104;50.720;7.044;2023-05-21T06:12:36;15.30;1.00
10129;DHT22;5104;50.720;7.044;2023-05-21T06:15:05;15.30;1.00
10129;DHT22;5104;50.720;7.044;2023-05-21T06:17:32;15.50;99.90
10129;DHT22;5104;50.720;7.044;2023-05-21T06:19:59;15.70;1.00
10129;DHT22;5104;50.720;7.044;2023-05-21T06:22:26;15.70;1.00
10129;DHT22;5104;50.720;7.044;2023-05-21T06:24:53;15.80;1.00
10129;DHT22;5104;50.720;7.044;2023-05-21T06:27:20;15.90;1.00
10129;DHT22;5104;50.720;7.044;2023-05-21T06:29:46;16.10;99.90
10129;DHT22;5104;50.720;7.044;2023-05-21T06:32:15;16.10;99.90
10129;DHT22;5104;50.720;7.044;2023-05-21T06:34:42;16.10;99.90
10129;DHT22;5104;50.720;7.044;2023-05-21T06:37:09;16.20;99.90
10129;DHT22;5104;50.720;7.044;2023-05-21T06:39:36;16.20;1.00
10129;DHT22;5104;50.720;7.044;2023-05-21T06:42:03;16.40;99.90
10129;DHT22;5104;50.720;7.044;2023-05-21T06:44:30;16.60;60.90
10129;DHT22;5104;50.720;7.044;2023-05-21T06:46:56;16.50;7.50
10129;DHT22;5104;50.720;7.044;2023-05-21T06:49:25;16.60;1.00
10129;DHT22;5104;50.720;7.044;2023-05-21T06:51:52;16.50;1.00
10129;DHT22;5104;50.720;7.044;2023-05-21T06:54:18;16.60;1.00
10129;DHT22;5104;50.720;7.044;2023-05-21T06:56:45;16.80;1.00
10129;DHT22;5104;50.720;7.044;2023-05-21T06:59:12;16.80;1.00
10129;DHT22;5104;50.720;7.044;2023-05-21T07:01:39;17.00;1.00
10129;DHT22;5104;50.720;7.044;2023-05-21T07:04:08;17.20;1.00
10129;DHT22;5104;50.720;7.044;2023-05-21T07:06:38;17.60;99.90
10129;DHT22;5104;50.720;7.044;2023-05-21T07:09:05;18.00;99.90
10129;DHT22;5104;50.720;7.044;2023-05-21T07:11:32;18.00;99.90
10129;DHT22;5104;50.720;7.044;2023-05-21T07:13:59;18.20;99.90
10129;DHT22;5104;50.720;7.044;2023-05-21T07:16:27;18.40;1.00
10129;DHT22;5104;50.720;7.044;2023-05-21T07:18:53;18.40;1.00
10129;DHT22;5104;50.720;7.044;2023-05-21T07:21:20;18.50;1.00
10129;DHT22;5104;50.720;7.044;2023-05-21T07:23:49;18.60;1.00
10129;DHT22;5104;50.720;7.044;2023-05-21T07:26:16;19.00;1.00
10129;DHT22;5104;50.720;7.044;2023-05-21T07:28:43;19.20;1.00
10129;DHT22;5104;50.720;7.044;2023-05-21T07:31:10;19.40;1.00
10129;DHT22;5104;50.720;7.044;2023-05-21T07:33:37;19.20;1.00
10129;DHT22;5104;50.720;7.044;2023-05-21T07:36:05;19.30;1.00
10129;DHT22;5104;50.720;7.044;2023-05-21T07:38:32;19.10;1.00
10129;DHT22;5104;50.720;7.044;2023-05-21T07:41:01;19.00;1.00
10129;DHT22;5104;50.720;7.044;2023-05-21T07:43:28;19.10;1.00
10129;DHT22;5104;50.720;7.044;2023-05-21T07:45:55;19.00;1.00
10129;DHT22;5104;50.720;7.044;2023-05-21T07:48:22;19.10;1.00
10129;DHT22;5104;50.720;7.044;2023-05-21T07:50:48;19.00;1.00
10129;DHT22;5104;50.720;7.044;2023-05-21T07:53:17;19.30;1.00
10129;DHT22;5104;50.720;7.044;2023-05-21T07:55:45;19.30;1.00
10129;DHT22;5104;50.720;7.044;2023-05-21T07:58:15;19.00;1.00
10129;DHT22;5104;50.720;7.044;2023-05-21T08:00:44;19.00;1.00
10129;DHT22;5104;50.720;7.044;2023-05-21T08:03:13;19.00;1.00
10129;DHT22;5104;50.720;7.044;2023-05-21T08:05:40;18.70;1.00
10129;DHT22;5104;50.720;7.044;2023-05-21T08:08:07;18.50;99.90
10129;DHT22;5104;50.720;7.044;2023-05-21T08:10:34;18.50;99.90
10129;DHT22;5104;50.720;7.044;2023-05-21T08:13:01;18.50;99.90
10129;DHT22;5104;50.720;7.044;2023-05-21T08:15:30;18.40;99.90
10129;DHT22;5104;50.720;7.044;2023-05-21T08:17:57;18.30;1.00
10129;DHT22;5104;50.720;7.044;2023-05-21T08:20:24;18.40;99.90
10129;DHT22;5104;50.720;7.044;2023-05-21T08:22:51;18.40;99.90
10129;DHT22;5104;50.720;7.044;2023-05-21T08:25:18;18.40;99.90
10129;DHT22;5104;50.720;7.044;2023-05-21T08:27:45;18.30;1.00
10129;DHT22;5104;50.720;7.044;2023-05-21T08:30:12;18.40;99.90
10129;DHT22;5104;50.720;7.044;2023-05-21T08:32:40;18.60;99.90
10129;DHT22;5104;50.720;7.044;2023-05-21T08:35:08;18.90;53.10
10129;DHT22;5104;50.720;7.044;2023-05-21T08:37:35;18.90;21.60
10129;DHT22;5104;50.720;7.044;2023-05-21T08:40:02;19.00;8.70
10129;DHT22;5104;50.720;7.044;2023-05-21T08:42:38;19.10;18.00
10129;DHT22;5104;50.720;7.044;2023-05-21T08:45:07;19.20;1.00
10129;DHT22;5104;50.720;7.044;2023-05-21T08:47:35;19.50;1.00
10129;DHT22;5104;50.720;7.044;2023-05-21T08:50:06;19.50;1.00
10129;DHT22;5104;50.720;7.044;2023-05-21T08:52:35;19.90;1.00
10129;DHT22;5104;50.720;7.044;2023-05-21T08:55:03;20.10;1.00
10129;DHT22;5104;50.720;7.044;2023-05-21T08:57:30;20.10;1.00
10129;DHT22;5104;50.720;7.044;2023-05-21T08:59:58;20.30;1.00
10129;DHT22;5104;50.720;7.044;2023-05-21T09:02:26;20.50;1.00
10129;DHT22;5104;50.720;7.044;2023-05-21T09:04:55;20.50;1.00
10129;DHT22;5104;50.720;7.044;2023-05-21T09:07:25;20.50;1.00
10129;DHT22;5104;50.720;7.044;2023-05-21T09:09:55;20.60;1.00
10129;DHT22;5104;50.720;7.044;2023-05-21T09:12:23;20.80;1.00
10129;DHT22;5104;50.720;7.044;2023-05-21T09:14:50;20.50;1.00
10129;DHT22;5104;50.720;7.044;2023-05-21T09:17:17;20.20;1.00
10129;DHT22;5104;50.720;7.044;2023-05-21T09:20:07;20.20;1.00
10129;DHT22;5104;50.720;7.044;2023-05-21T09:22:41;20.50;1.00
10129;DHT22;5104;50.720;7.044;2023-05-21T09:25:09;20.40;1.00
10129;DHT22;5104;50.720;7.044;2023-05-21T09:27:37;20.30;1.00
10129;DHT22;5104;50.720;7.044;2023-05-21T09:30:08;20.40;1.00
10129;DHT22;5104;50.720;7.044;2023-05-21T09:32:36;20.50;1.00
10129;DHT22;5104;50.720;7.044;2023-05-21T09:35:07;20.50;1.00
10129;DHT22;5104;50.720;7.044;2023-05-21T09:37:40;20.50;1.00
10129;DHT22;5104;50.720;7.044;2023-05-21T09:40:12;20.50;1.00
10129;DHT22;5104;50.720;7.044;2023-05-21T09:42:40;20.60;1.00
10129;DHT22;5104;50.720;7.044;2023-05-21T09:45:08;20.60;1.00
10129;DHT22;5104;50.720;7.044;2023-05-21T09:47:40;20.90;1.00
10129;DHT22;5104;50.720;7.044;2023-05-21T09:50:09;21.00;99.90
10129;DHT22;5104;50.720;7.044;2023-05-21T09:52:36;20.80;99.90
10129;DHT22;5104;50.720;7.044;2023-05-21T09:55:06;20.80;99.90
10129;DHT22;5104;50.720;7.044;2023-05-21T09:57:39;20.80;99.90
10129;DHT22;5104;50.720;7.044;2023-05-21T10:00:08;20.80;99.90
10129;DHT22;5104;50.720;7.044;2023-05-21T10:02:40;21.00;99.90
10129;DHT22;5104;50.720;7.044;2023-05-21T10:05:11;21.00;99.90
10129;DHT22;5104;50.720;7.044;2023-05-21T10:07:40;21.20;99.90
10129;DHT22;5104;50.720;7.044;2023-05-21T10:10:12;21.10;99.90
10129;DHT22;5104;50.720;7.044;2023-05-21T10:12:41;21.30;99.90
10129;DHT22;5104;50.720;7.044;2023-05-21T10:15:13;21.50;99.90
10129;DHT22;5104;50.720;7.044;2023-05-21T10:17:40;21.80;99.90
10129;DHT22;5104;50.720;7.044;2023-05-21T10:20:10;21.90;99.90
10129;DHT22;5104;50.720;7.044;2023-05-21T10:22:38;22.10;99.90
10129;DHT22;5104;50.720;7.044;2023-05-21T10:25:07;22.40;99.90
10129;DHT22;5104;50.720;7.044;2023-05-21T10:27:36;22.60;99.90
10129;DHT22;5104;50.720;7.044;2023-05-21T10:30:04;22.50;74.20
10129;DHT22;5104;50.720;7.044;2023-05-21T10:32:32;22.40;73.20
10129;DHT22;5104;50.720;7.044;2023-05-21T10:35:00;22.60;17.30
10129;DHT22;5104;50.720;7.044;2023-05-21T10:37:29;22.70;21.30
10129;DHT22;5104;50.720;7.044;2023-05-21T10:39:56;22.50;1.00
10129;DHT22;5104;50.720;7.044;2023-05-21T10:43:07;22.10;1.00
10129;DHT22;5104;50.720;7.044;2023-05-21T10:45:49;22.30;1.00
10129;DHT22;5104;50.720;7.044;2023-05-21T10:48:32;22.20;4.00
10129;DHT22;5104;50.720;7.044;2023-05-21T10:51:13;22.20;65.80
10129;DHT22;5104;50.720;7.044;2023-05-21T10:54:07;22.30;1.00
10129;DHT22;5104;50.720;7.044;2023-05-21T10:56:40;22.40;1.00
10129;DHT22;5104;50.720;7.044;2023-05-21T10:59:30;22.40;1.00
10129;DHT22;5104;50.720;7.044;2023-05-21T11:02:00;22.80;1.00
10129;DHT22;5104;50.720;7.044;2023-05-21T11:04:28;22.70;1.00
10129;DHT22;5104;50.720;7.044;2023-05-21T11:06:57;22.70;1.00
10129;DHT22;5104;50.720;7.044;2023-05-21T11:09:25;22.90;1.00
10129;DHT22;5104;50.720;7.044;2023-05-21T11:11:56;22.80;1.00
10129;DHT22;5104;50.720;7.044;2023-05-21T11:14:34;22.50;1.00
10129;DHT22;5104;50.720;7.044;2023-05-21T11:17:03;22.30;37.10
10129;DHT22;5104;50.720;7.044;2023-05-21T11:19:34;22.20;91.60
10129;DHT22;5104;50.720;7.044;2023-05-21T11:22:06;22.20;78.90
10129;DHT22;5104;50.720;7.044;2023-05-21T11:24:36;22.20;99.90
10129;DHT22;5104;50.720;7.044;2023-05-21T11:27:04;22.30;90.40
10129;DHT22;5104;50.720;7.044;2023-05-21T11:29:47;22.40;93.50
10129;DHT22;5104;50.720;7.044;2023-05-21T11:32:15;22.20;88.30
10129;DHT22;5104;50.720;7.044;2023-05-21T11:34:45;22.20;99.90
10129;DHT22;5104;50.720;7.044;2023-05-21T11:37:37;22.50;46.60
10129;DHT22;5104;50.720;7.044;2023-05-21T11:40:33;22.80;1.00
10129;DHT22;5104;50.720;7.044;2023-05-21T11:43:00;22.80;1.00
10129;DHT22;5104;50.720;7.044;2023-05-21T11:45:30;23.00;1.00
10129;DHT22;5104;50.720;7.044;2023-05-21T11:47:58;22.90;1.00
10129;DHT22;5104;50.720;7.044;2023-05-21T11:50:26;23.30;1.00
10129;DHT22;5104;50.720;7.044;2023-05-21T11:52:55;23.10;1.00
10129;DHT22;5104;50.720;7.044;2023-05-21T11:55:24;22.60;1.00
10129;DHT22;5104;50.720;7.044;2023-05-21T11:57:55;22.70;1.00
10129;DHT22;5104;50.720;7.044;2023-05-21T12:00:23;22.60;1.00
10129;DHT22;5104;50.720;7.044;2023-05-21T12:02:52;22.80;1.00
10129;DHT22;5104;50.720;7.044;2023-05-21T12:05:20;22.90;1.00
10129;DHT22;5104;50.720;7.044;2023-05-21T12:07:47;23.10;1.00
10129;DHT22;5104;50.720;7.044;2023-05-21T12:10:15;23.40;1.00
10129;DHT22;5104;50.720;7.044;2023-05-21T12:12:42;23.30;1.00
10129;DHT22;5104;50.720;7.044;2023-05-21T12:15:10;23.50;1.00
10129;DHT22;5104;50.720;7.044;2023-05-21T12:17:38;23.40;1.00
10129;DHT22;5104;50.720;7.044;2023-05-21T12:20:07;23.40;1.00
10129;DHT22;5104;50.720;7.044;2023-05-21T12:22:39;23.50;1.00
10129;DHT22;5104;50.720;7.044;2023-05-21T12:25:08;23.70;1.00
10129;DHT22;5104;50.720;7.044;2023-05-21T12:27:36;24.00;1.00
10129;DHT22;5104;50.720;7.044;2023-05-21T12:30:05;23.90;1.00
10129;DHT22;5104;50.720;7.044;2023-05-21T12:32:32;24.10;1.00
10129;DHT22;5104;50.720;7.044;2023-05-21T12:34:59;24.30;1.00
10129;DHT22;5104;50.720;7.044;2023-05-21T12:37:29;24.30;1.00
10129;DHT22;5104;50.720;7.044;2023-05-21T12:39:58;24.50;1.00
10129;DHT22;5104;50.720;7.044;2023-05-21T12:42:27;24.80;1.00
10129;DHT22;5104;50.720;7.044;2023-05-21T12:44:55;24.70;1.00
10129;DHT22;5104;50.720;7.044;2023-05-21T12:47:23;25.10;1.00
10129;DHT22;5104;50.720;7.044;2023-05-21T12:49:53;25.20;1.00
10129;DHT22;5104;50.720;7.044;2023-05-21T12:52:22;25.20;1.00
10129;DHT22;5104;50.720;7.044;2023-05-21T12:54:51;25.40;1.00
10129;DHT22;5104;50.720;7.044;2023-05-21T12:57:20;25.00;1.00
10129;DHT22;5104;50.720;7.044;2023-05-21T12:59:49;25.10;1.00
10129;DHT22;5104;50.720;7.044;2023-05-21T13:02:19;25.30;1.00
10129;DHT22;5104;50.720;7.044;2023-05-21T13:04:46;25.50;1.00
10129;DHT22;5104;50.720;7.044;2023-05-21T13:07:13;25.30;1.00
10129;DHT22;5104;50.720;7.044;2023-05-21T13:09:41;25.20;1.00
10129;DHT22;5104;50.720;7.044;2023-05-21T13:12:10;25.40;1.00
10129;DHT22;5104;50.720;7.044;2023-05-21T13:14:37;25.50;1.00
10129;DHT22;5104;50.720;7.044;2023-05-21T13:17:04;25.60;1.00
10129;DHT22;5104;50.720;7.044;2023-05-21T13:19:31;25.80;1.00
10129;DHT22;5104;50.720;7.044;2023-05-21T13:21:58;25.80;1.00
10129;DHT22;5104;50.720;7.044;2023-05-21T13:24:25;25.90;1.00
10129;DHT22;5104;50.720;7.044;2023-05-21T13:26:52;25.90;1.00
10129;DHT22;5104;50.720;7.044;2023-05-21T13:29:20;25.70;1.00
10129;DHT22;5104;50.720;7.044;2023-05-21T13:31:47;25.90;1.00
10129;DHT22;5104;50.720;7.044;2023-05-21T13:34:14;25.80;1.00
10129;DHT22;5104;50.720;7.044;2023-05-21T13:36:41;26.00;1.00
10129;DHT22;5104;50.720;7.044;2023-05-21T13:39:08;26.10;1.00
10129;DHT22;5104;50.720;7.044;2023-05-21T13:41:35;26.30;1.00
10129;DHT22;5104;50.720;7.044;2023-05-21T13:44:02;26.30;1.00
10129;DHT22;5104;50.720;7.044;2023-05-21T13:46:31;26.20;1.00
10129;DHT22;5104;50.720;7.044;2023-05-21T13:48:58;26.20;1.00
10129;DHT22;5104;50.720;7.044;2023-05-21T13:51:25;26.30;1.00
10129;DHT22;5104;50.720;7.044;2023-05-21T13:53:52;26.40;1.00
10129;DHT22;5104;50.720;7.044;2023-05-21T13:56:20;26.40;1.00
10129;DHT22;5104;50.720;7.044;2023-05-21T13:58:47;26.20;1.00
10129;DHT22;5104;50.720;7.044;2023-05-21T14:01:14;26.30;1.00
10129;DHT22;5104;50.720;7.044;2023-05-21T14:03:43;26.50;1.00
10129;DHT22;5104;50.720;7.044;2023-05-21T14:06:10;26.60;1.00
10129;DHT22;5104;50.720;7.044;2023-05-21T14:08:36;27.00;1.00
10129;DHT22;5104;50.720;7.044;2023-05-21T14:11:04;27.50;1.00
10129;DHT22;5104;50.720;7.044;2023-05-21T14:13:31;27.50;1.00
10129;DHT22;5104;50.720;7.044;2023-05-21T14:15:58;27.60;1.00
10129;DHT22;5104;50.720;7.044;2023-05-21T14:18:25;27.80;1.00
10129;DHT22;5104;50.720;7.044;2023-05-21T14:20:53;28.20;99.90
10129;DHT22;5104;50.720;7.044;2023-05-21T14:23:20;28.50;99.90
10129;DHT22;5104;50.720;7.044;2023-05-21T14:25:47;28.60;99.90
10129;DHT22;5104;50.720;7.044;2023-05-21T14:28:14;29.20;99.90
10129;DHT22;5104;50.720;7.044;2023-05-21T14:30:41;29.40;99.90
10129;DHT22;5104;50.720;7.044;2023-05-21T14:33:08;29.80;99.90
10129;DHT22;5104;50.720;7.044;2023-05-21T14:35:35;29.80;99.90
10129;DHT22;5104;50.720;7.044;2023-05-21T14:38:04;29.90;99.90
10129;DHT22;5104;50.720;7.044;2023-05-21T14:40:31;30.40;99.90
10129;DHT22;5104;50.720;7.044;2023-05-21T14:42:58;30.40;99.90
10129;DHT22;5104;50.720;7.044;2023-05-21T14:45:25;30.40;99.90
10129;DHT22;5104;50.720;7.044;2023-05-21T14:47:52;30.80;99.90
10129;DHT22;5104;50.720;7.044;2023-05-21T14:50:19;30.60;99.90
10129;DHT22;5104;50.720;7.044;2023-05-21T14:52:46;30.60;99.90
10129;DHT22;5104;50.720;7.044;2023-05-21T14:55:14;30.80;99.90
10129;DHT22;5104;50.720;7.044;2023-05-21T14:57:43;31.00;99.90
10129;DHT22;5104;50.720;7.044;2023-05-21T15:00:11;31.70;99.90
10129;DHT22;5104;50.720;7.044;2023-05-21T15:02:38;31.90;99.90
10129;DHT22;5104;50.720;7.044;2023-05-21T15:05:05;31.70;99.90
10129;DHT22;5104;50.720;7.044;2023-05-21T15:07:32;31.80;99.90
10129;DHT22;5104;50.720;7.044;2023-05-21T15:09:59;31.80;99.90
10129;DHT22;5104;50.720;7.044;2023-05-21T15:12:28;32.00;99.90
10129;DHT22;5104;50.720;7.044;2023-05-21T15:14:55;31.60;99.90
10129;DHT22;5104;50.720;7.044;2023-05-21T15:17:22;32.00;99.90
10129;DHT22;5104;50.720;7.044;2023-05-21T15:19:49;32.00;99.90
10129;DHT22;5104;50.720;7.044;2023-05-21T15:22:16;31.40;99.90
10129;DHT22;5104;50.720;7.044;2023-05-21T15:24:42;31.00;99.90
10129;DHT22;5104;50.720;7.044;2023-05-21T15:27:10;31.20;99.90
10129;DHT22;5104;50.720;7.044;2023-05-21T15:29:38;31.70;99.90
10129;DHT22;5104;50.720;7.044;2023-05-21T15:32:05;32.50;99.90
10129;DHT22;5104;50.720;7.044;2023-05-21T15:34:32;31.50;99.90
10129;DHT22;5104;50.720;7.044;2023-05-21T15:36:59;31.90;99.90
10129;DHT22;5104;50.720;7.044;2023-05-21T15:39:26;31.70;99.90
10129;DHT22;5104;50.720;7.044;2023-05-21T15:41:54;32.00;99.90
10129;DHT22;5104;50.720;7.044;2023-05-21T15:44:21;31.20;99.90
10129;DHT22;5104;50.720;7.044;2023-05-21T15:46:49;31.20;99.90
10129;DHT22;5104;50.720;7.044;2023-05-21T15:49:18;31.00;99.90
10129;DHT22;5104;50.720;7.044;2023-05-21T15:51:46;30.90;99.90
10129;DHT22;5104;50.720;7.044;2023-05-21T15:54:13;31.10;99.90
10129;DHT22;5104;50.720;7.044;2023-05-21T15:56:42;31.40;99.90
10129;DHT22;5104;50.720;7.044;2023-05-21T15:59:09;30.80;99.90
10129;DHT22;5104;50.720;7.044;2023-05-21T16:01:36;30.60;99.90